createdAt,value
2023-03-26T00:01:55.056Z,99042.25
2023-03-26T00:04:25.452Z,99039.75
2023-03-26T00:06:54.157Z,99036.44
2023-03-26T00:09:23.338Z,99038.97
2023-03-26T00:11:51.393Z,99033.94
2023-03-26T00:14:19.280Z,99035.63
2023-03-26T00:16:49.334Z,99041.44
2023-03-26T00:19:17.346Z,99038.16
2023-03-26T00:21:45.349Z,99033.22
2023-03-26T00:24:16.150Z,99027.34
2023-03-26T00:26:48.524Z,99030.72
2023-03-26T00:29:16.877Z,99023.97
2023-03-26T00:31:46.581Z,99015.63
2023-03-26T00:34:15.846Z,99023.06
2023-03-26T00:36:43.991Z,99015.59
2023-03-26T00:39:11.960Z,99018.09
2023-03-26T00:41:43.284Z,99015.63
2023-03-26T00:44:13.927Z,99017.38
2023-03-26T00:46:42.704Z,99020.75
2023-03-26T00:49:14.759Z,99023.13
2023-03-26T00:51:43.332Z,99019.63
2023-03-26T00:54:11.918Z,99021.22
2023-03-26T00:56:39.851Z,99018.75
2023-03-26T00:59:09.250Z,99011.31
2023-03-26T01:01:39.695Z,99005.38
2023-03-26T01:04:30.598Z,99010.25
2023-03-26T01:07:02.661Z,99010.19
2023-03-26T01:09:35.558Z,99012.69
2023-03-26T01:12:06.702Z,99005.13
2023-03-26T01:14:34.739Z,99002.59
2023-03-26T01:17:07.092Z,99004.16
2023-03-26T01:19:44.675Z,99004.91
2023-03-26T01:22:17.599Z,99009.66
2023-03-26T01:24:53.039Z,99007.91
2023-03-26T01:27:28.878Z,99003.72
2023-03-26T01:30:03.866Z,99011.03
2023-03-26T01:32:44.837Z,99015.94
2023-03-26T01:35:25.521Z,99011.81
2023-03-26T01:38:10.921Z,99022.75
2023-03-26T01:40:47.041Z,99011.94
2023-03-26T01:43:25.543Z,99017.69
2023-03-26T01:45:54.860Z,99016.00
2023-03-26T01:48:30.593Z,99012.63
2023-03-26T01:50:58.837Z,99010.16
2023-03-26T01:53:27.325Z,99012.63
2023-03-26T01:56:06.906Z,99005.09
2023-03-26T01:58:42.114Z,99001.97
2023-03-26T02:01:27.864Z,98997.81
2023-03-26T02:04:00.658Z,98992.91
2023-03-26T02:06:38.167Z,98991.41
2023-03-26T02:09:09.059Z,98986.47
2023-03-26T02:11:41.594Z,98996.47
2023-03-26T02:14:10.946Z,98994.03
2023-03-26T02:16:39.286Z,98993.22
2023-03-26T02:19:15.987Z,98978.28
2023-03-26T02:21:45.916Z,98978.38
2023-03-26T02:24:13.961Z,98970.06
2023-03-26T02:26:43.211Z,98972.63
2023-03-26T02:29:13.290Z,98967.69
2023-03-26T02:31:43.964Z,98966.81
2023-03-26T02:34:11.882Z,98969.22
2023-03-26T02:36:43.825Z,98965.56
2023-03-26T02:39:14.270Z,98969.69
2023-03-26T02:41:46.787Z,98971.34
2023-03-26T02:44:14.737Z,98976.41
2023-03-26T02:47:00.948Z,98989.78
2023-03-26T02:49:48.790Z,98981.47
2023-03-26T02:52:24.272Z,98981.41
2023-03-26T02:54:54.577Z,98978.03
2023-03-26T02:57:26.404Z,98973.03
2023-03-26T03:00:00.092Z,98983.03
2023-03-26T03:02:38.334Z,98970.53
2023-03-26T03:05:27.080Z,98976.28
2023-03-26T03:08:08.899Z,98976.19
2023-03-26T03:10:39.876Z,98981.13
2023-03-26T03:13:14.970Z,98980.22
2023-03-26T03:15:42.860Z,98987.59
2023-03-26T03:18:10.808Z,98994.19
2023-03-26T03:20:38.853Z,98990.69
2023-03-26T03:23:06.762Z,98989.69
2023-03-26T03:25:35.133Z,98998.84
2023-03-26T03:28:03.282Z,98987.88
2023-03-26T03:30:32.652Z,98988.50
2023-03-26T03:33:13.080Z,98991.88
2023-03-26T03:35:41.671Z,98993.56
2023-03-26T03:38:09.632Z,98985.09
2023-03-26T03:40:46.862Z,98989.75
2023-03-26T03:43:15.376Z,98986.41
2023-03-26T03:45:58.157Z,98991.41
2023-03-26T03:48:39.049Z,99004.59
2023-03-26T03:51:08.745Z,98998.63
2023-03-26T03:53:57.526Z,99001.03
2023-03-26T03:56:48.977Z,99000.09
2023-03-26T03:59:37.346Z,98998.50
2023-03-26T04:02:10.900Z,99012.56
2023-03-26T04:04:46.356Z,98992.47
2023-03-26T04:07:16.834Z,98992.13
2023-03-26T04:10:15.675Z,98992.88
2023-03-26T04:13:02.190Z,98994.56
2023-03-26T04:16:02.860Z,98995.44
2023-03-26T04:18:32.454Z,98993.75
2023-03-26T04:21:07.397Z,98990.31
2023-03-26T04:23:36.471Z,98985.31
2023-03-26T04:26:17.019Z,98993.59
2023-03-26T04:29:12.833Z,98993.59
2023-03-26T04:31:43.133Z,99000.38
2023-03-26T04:34:24.084Z,98987.19
2023-03-26T04:37:26.609Z,98987.78
2023-03-26T04:40:10.330Z,98988.53
2023-03-26T04:42:54.574Z,98978.53
2023-03-26T04:45:34.999Z,98981.91
2023-03-26T04:48:02.933Z,98981.94
2023-03-26T04:50:32.362Z,98980.31
2023-03-26T04:53:00.903Z,98977.91
2023-03-26T04:55:57.062Z,98975.38
2023-03-26T04:58:45.336Z,98979.34
2023-03-26T05:01:13.923Z,98970.84
2023-03-26T05:03:45.680Z,98964.06
2023-03-26T05:06:18.739Z,98968.25
2023-03-26T05:08:47.055Z,98960.13
2023-03-26T05:11:30.172Z,98971.13
2023-03-26T05:13:58.130Z,98974.53
2023-03-26T05:16:26.904Z,98971.28
2023-03-26T05:18:59.236Z,98969.72
2023-03-26T05:21:33.692Z,98968.13
2023-03-26T05:24:02.280Z,98965.63
2023-03-26T05:26:30.665Z,98969.97
2023-03-26T05:28:59.545Z,98975.00
2023-03-26T05:31:33.524Z,98974.34
2023-03-26T05:34:03.306Z,98973.63
2023-03-26T05:36:31.396Z,98982.91
2023-03-26T05:39:15.881Z,98976.34
2023-03-26T05:42:09.738Z,98968.06
2023-03-26T05:44:53.586Z,98966.38
2023-03-26T05:47:27.387Z,98974.59
2023-03-26T05:49:55.454Z,98974.47
2023-03-26T05:52:23.423Z,98980.19
2023-03-26T05:55:11.836Z,98974.34
2023-03-26T05:58:01.098Z,98973.63
2023-03-26T06:00:48.584Z,98971.06
2023-03-26T06:03:23.348Z,98978.53
2023-03-26T06:06:16.805Z,98977.69
2023-03-26T06:09:01.988Z,98968.59
2023-03-26T06:11:33.590Z,98979.38
2023-03-26T06:14:03.916Z,98969.41
2023-03-26T06:16:33.026Z,98979.53
2023-03-26T06:19:13.394Z,98977.13
2023-03-26T06:22:07.795Z,98981.41
2023-03-26T06:24:58.465Z,98988.13
2023-03-26T06:27:43.553Z,98965.31
2023-03-26T06:30:30.038Z,98998.19
2023-03-26T06:33:06.572Z,98996.56
2023-03-26T06:35:42.837Z,98999.00
2023-03-26T06:38:10.762Z,99009.03
2023-03-26T06:40:38.850Z,99009.16
2023-03-26T06:43:39.066Z,99006.03
2023-03-26T06:46:25.761Z,99012.88
2023-03-26T06:48:53.604Z,99012.13
2023-03-26T06:51:41.167Z,99003.22
2023-03-26T06:54:09.155Z,99002.56
2023-03-26T06:56:55.215Z,99006.13
2023-03-26T06:59:39.372Z,98998.81
2023-03-26T07:02:26.447Z,99001.47
2023-03-26T07:05:13.829Z,99000.88
2023-03-26T07:07:59.996Z,99002.00
2023-03-26T07:10:51.061Z,99001.22
2023-03-26T07:13:44.976Z,99002.16
2023-03-26T07:16:32.942Z,99003.81
2023-03-26T07:19:19.564Z,98994.66
2023-03-26T07:21:49.045Z,98990.59
2023-03-26T07:24:55.705Z,98993.47
2023-03-26T07:27:53.657Z,98984.72
2023-03-26T07:30:39.512Z,98989.22
2023-03-26T07:33:30.507Z,98991.19
2023-03-26T07:36:25.599Z,98989.75
2023-03-26T07:39:30.424Z,98990.81
2023-03-26T07:42:32.490Z,98988.41
2023-03-26T07:45:35.191Z,98982.63
2023-03-26T07:48:27.317Z,98970.88
2023-03-26T07:51:18.803Z,98974.34
2023-03-26T07:53:52.902Z,98979.38
2023-03-26T07:56:54.094Z,98969.31
2023-03-26T07:59:51.807Z,98968.53
2023-03-26T08:03:16.824Z,98970.34
2023-03-26T08:06:16.466Z,98962.84
2023-03-26T08:09:29.227Z,98966.06
2023-03-26T08:12:25.593Z,98954.28
2023-03-26T08:15:01.918Z,98961.03
2023-03-26T08:17:38.034Z,98955.97
2023-03-26T08:20:17.193Z,98949.16
2023-03-26T08:22:51.892Z,98957.41
2023-03-26T08:25:29.551Z,98947.31
2023-03-26T08:28:10.625Z,98941.47
2023-03-26T08:30:38.850Z,98946.69
2023-03-26T08:33:13.904Z,98945.19
2023-03-26T08:35:42.797Z,98945.25
2023-03-26T08:38:14.311Z,98941.91
2023-03-26T08:41:06.035Z,98942.75
2023-03-26T08:43:59.554Z,98932.66
2023-03-26T08:46:58.318Z,98931.69
2023-03-26T08:49:56.739Z,98930.75
2023-03-26T08:53:03.372Z,98923.97
2023-03-26T08:55:53.544Z,98933.94
2023-03-26T08:58:55.284Z,98935.50
2023-03-26T09:01:55.432Z,98934.66
2023-03-26T09:05:00.032Z,98935.53
2023-03-26T09:07:48.212Z,98932.28
2023-03-26T09:10:51.712Z,98924.13
2023-03-26T09:13:56.119Z,98929.25
2023-03-26T09:16:56.012Z,98915.88
2023-03-26T09:19:53.037Z,98920.06
2023-03-26T09:23:03.289Z,98917.47
2023-03-26T09:26:08.413Z,98914.94
2023-03-26T09:29:36.513Z,98905.81
2023-03-26T09:32:43.944Z,98893.44
2023-03-26T09:35:16.182Z,98902.75
2023-03-26T09:38:12.020Z,98896.97
2023-03-26T09:40:52.851Z,98894.47
2023-03-26T09:43:41.915Z,98892.03
2023-03-26T09:46:28.111Z,98892.06
2023-03-26T09:49:17.287Z,98894.56
2023-03-26T09:52:22.200Z,98876.94
2023-03-26T09:55:08.257Z,98874.47
2023-03-26T09:57:58.448Z,98877.03
2023-03-26T10:00:37.402Z,98858.66
2023-03-26T10:03:33.272Z,98856.19
2023-03-26T10:06:13.879Z,98854.50
2023-03-26T10:08:59.516Z,98842.78
2023-03-26T10:11:40.461Z,98846.97
2023-03-26T10:14:20.364Z,98836.09
2023-03-26T10:17:01.462Z,98837.75
2023-03-26T10:19:46.484Z,98820.16
2023-03-26T10:22:29.467Z,98821.84
2023-03-26T10:25:16.590Z,98833.56
2023-03-26T10:27:53.834Z,98810.94
2023-03-26T10:30:46.775Z,98827.69
2023-03-26T10:33:25.929Z,98821.00
2023-03-26T10:36:11.832Z,98821.00
2023-03-26T10:39:00.737Z,98812.59
2023-03-26T10:41:40.649Z,98803.38
2023-03-26T10:44:43.430Z,98814.28
2023-03-26T10:47:20.852Z,98808.41
2023-03-26T10:50:03.890Z,98813.44
2023-03-26T10:52:38.954Z,98802.53
2023-03-26T10:55:14.322Z,98793.34
2023-03-26T10:57:46.919Z,98790.00
2023-03-26T11:00:18.138Z,98790.84
2023-03-26T11:03:00.013Z,98788.34
2023-03-26T11:05:45.586Z,98770.75
2023-03-26T11:08:31.371Z,98774.09
2023-03-26T11:11:06.681Z,98761.50
2023-03-26T11:13:47.174Z,98748.94
2023-03-26T11:16:24.667Z,98748.91
2023-03-26T11:18:59.839Z,98747.22
2023-03-26T11:21:34.698Z,98745.59
2023-03-26T11:24:26.214Z,98738.91
2023-03-26T11:26:57.766Z,98736.41
2023-03-26T11:29:52.629Z,98723.81
2023-03-26T11:32:24.883Z,98721.28
2023-03-26T11:35:02.332Z,98726.31
2023-03-26T11:37:34.021Z,98712.06
2023-03-26T11:40:08.673Z,98717.06
2023-03-26T11:42:37.211Z,98706.13
2023-03-26T11:45:09.154Z,98708.56
2023-03-26T11:47:45.627Z,98705.94
2023-03-26T11:50:20.665Z,98691.72
2023-03-26T11:52:52.263Z,98690.00
2023-03-26T11:55:23.778Z,98693.22
2023-03-26T11:57:57.154Z,98694.78
2023-03-26T12:00:27.523Z,98693.09
2023-03-26T12:02:58.550Z,98686.31
2023-03-26T12:05:33.427Z,98679.63
2023-03-26T12:08:03.662Z,98676.13
2023-03-26T12:10:37.752Z,98668.50
2023-03-26T12:13:26.571Z,98663.41
2023-03-26T12:15:59.637Z,98657.56
2023-03-26T12:18:29.350Z,98648.28
2023-03-26T12:21:05.622Z,98637.34
2023-03-26T12:23:45.702Z,98627.28
2023-03-26T12:26:20.774Z,98618.94
2023-03-26T12:28:51.214Z,98618.19
2023-03-26T12:31:20.462Z,98610.66
2023-03-26T12:34:07.527Z,98609.19
2023-03-26T12:36:36.156Z,98605.91
2023-03-26T12:40:08.660Z,98592.53
2023-03-26T12:44:46.259Z,98598.44
2023-03-26T12:45:23.905Z,98596.00
2023-03-26T12:47:59.263Z,98585.97
2023-03-26T12:50:43.251Z,98579.94
2023-03-26T12:53:39.612Z,98578.22
2023-03-26T12:56:19.686Z,98567.25
2023-03-26T12:59:05.750Z,98537.00
2023-03-26T13:01:50.377Z,98557.00
2023-03-26T13:04:38.933Z,98556.88
2023-03-26T13:07:17.960Z,98555.94
2023-03-26T13:09:57.707Z,98558.50
2023-03-26T13:12:35.541Z,98546.75
2023-03-26T13:15:22.048Z,98551.66
2023-03-26T13:18:02.289Z,98539.88
2023-03-26T13:20:37.275Z,98540.97
2023-03-26T13:23:18.111Z,98532.13
2023-03-26T13:25:53.777Z,98524.03
2023-03-26T13:28:32.844Z,98521.25
2023-03-26T13:31:11.802Z,98524.84
2023-03-26T13:33:49.823Z,98521.91
2023-03-26T13:36:26.992Z,98518.75
2023-03-26T13:39:12.697Z,98513.56
2023-03-26T13:41:53.599Z,98515.25
2023-03-26T13:44:32.283Z,98510.22
2023-03-26T13:47:06.224Z,98494.47
2023-03-26T13:49:38.784Z,98507.06
2023-03-26T13:52:11.492Z,98512.28
2023-03-26T13:54:45.380Z,98499.75
2023-03-26T13:57:20.168Z,98502.38
2023-03-26T13:59:53.942Z,98498.22
2023-03-26T14:02:28.763Z,98495.00
2023-03-26T14:05:02.055Z,98487.59
2023-03-26T14:07:35.887Z,98486.03
2023-03-26T14:10:09.759Z,98474.38
2023-03-26T14:12:51.249Z,98472.81
2023-03-26T14:15:24.751Z,98475.34
2023-03-26T14:18:02.664Z,98478.78
2023-03-26T14:20:53.240Z,98461.03
2023-03-26T14:23:39.946Z,98452.53
2023-03-26T14:26:19.559Z,98449.00
2023-03-26T14:29:18.673Z,98445.44
2023-03-26T14:31:59.377Z,98436.09
2023-03-26T14:34:59.845Z,98434.25
2023-03-26T14:38:01.728Z,98427.50
2023-03-26T14:40:37.531Z,98427.53
2023-03-26T14:43:28.553Z,98421.66
2023-03-26T14:46:12.518Z,98415.09
2023-03-26T14:49:12.381Z,98405.09
2023-03-26T14:52:02.053Z,98393.31
2023-03-26T14:54:33.447Z,98389.94
2023-03-26T14:57:22.605Z,98386.53
2023-03-26T15:00:28.667Z,98373.94
2023-03-26T15:03:38.617Z,98363.06
2023-03-26T15:06:27.173Z,98357.25
2023-03-26T15:09:31.405Z,98360.81
2023-03-26T15:12:12.734Z,98353.44
2023-03-26T15:15:23.529Z,98350.22
2023-03-26T15:18:24.659Z,98342.81
2023-03-26T15:21:28.532Z,98342.03
2023-03-26T15:24:38.137Z,98337.09
2023-03-26T15:27:28.729Z,98332.09
2023-03-26T15:30:37.949Z,98325.38
2023-03-26T15:33:51.183Z,98318.72
2023-03-26T15:37:06.768Z,98316.97
2023-03-26T15:40:16.890Z,98311.94
2023-03-26T15:42:55.939Z,98312.78
2023-03-26T15:45:34.424Z,98307.75
2023-03-26T15:48:41.248Z,98312.41
2023-03-26T15:51:29.596Z,98314.63
2023-03-26T15:54:04.779Z,98315.38
2023-03-26T15:56:52.980Z,98312.84
2023-03-26T15:59:37.950Z,98307.78
2023-03-26T16:02:17.892Z,98318.78
2023-03-26T16:04:52.326Z,98309.66
2023-03-26T16:07:41.344Z,98300.53
2023-03-26T16:10:21.782Z,98295.59
2023-03-26T16:13:10.490Z,98291.53
2023-03-26T16:15:40.300Z,98275.75
2023-03-26T16:18:31.228Z,98285.88
2023-03-26T16:21:47.935Z,98282.66
2023-03-26T16:24:26.950Z,98282.00
2023-03-26T16:27:21.197Z,98259.66
2023-03-26T16:30:26.231Z,98292.31
2023-03-26T16:32:58.717Z,98287.38
2023-03-26T16:35:56.943Z,98289.13
2023-03-26T16:38:27.319Z,98279.13
2023-03-26T16:41:03.422Z,98276.66
2023-03-26T16:44:05.375Z,98275.06
2023-03-26T16:46:43.909Z,98264.22
2023-03-26T16:49:26.002Z,98250.84
2023-03-26T16:52:10.711Z,98257.59
2023-03-26T16:54:49.249Z,98257.66
2023-03-26T16:57:27.102Z,98266.06
2023-03-26T17:00:07.377Z,98262.75
2023-03-26T17:02:49.204Z,98268.66
2023-03-26T17:05:25.345Z,98262.03
2023-03-26T17:08:02.500Z,98250.38
2023-03-26T17:10:36.857Z,98260.41
2023-03-26T17:13:08.777Z,98261.25
2023-03-26T17:15:45.989Z,98256.25
2023-03-26T17:18:32.102Z,98251.25
2023-03-26T17:21:06.547Z,98252.94
2023-03-26T17:24:00.470Z,98251.28
2023-03-26T17:26:42.253Z,98246.25
2023-03-26T17:29:27.190Z,98244.59
2023-03-26T17:32:01.462Z,98255.47
2023-03-26T17:34:53.259Z,98247.13
2023-03-26T17:37:43.416Z,98255.50
2023-03-26T17:40:48.962Z,98253.84
2023-03-26T17:43:40.270Z,98242.97
2023-03-26T17:46:24.538Z,98252.16
2023-03-26T17:49:00.644Z,98248.00
2023-03-26T17:51:40.182Z,98246.34
2023-03-26T17:54:18.106Z,98254.72
2023-03-26T17:56:48.233Z,98260.59
2023-03-26T17:59:23.272Z,98257.25
2023-03-26T18:01:55.452Z,98244.78
2023-03-26T18:04:31.159Z,98245.53
2023-03-26T18:07:15.239Z,98239.69
2023-03-26T18:10:00.141Z,98225.53
2023-03-26T18:12:50.206Z,98235.59
2023-03-26T18:15:33.128Z,98234.81
2023-03-26T18:18:10.640Z,98223.13
2023-03-26T18:20:42.558Z,98229.03
2023-03-26T18:23:13.329Z,98221.44
2023-03-26T18:25:42.725Z,98209.72
2023-03-26T18:28:15.245Z,98196.38
2023-03-26T18:30:48.272Z,98196.28
2023-03-26T18:33:16.874Z,98200.44
2023-03-26T18:35:46.713Z,98190.38
2023-03-26T18:38:35.659Z,98193.72
2023-03-26T18:41:08.624Z,98189.53
2023-03-26T18:43:44.438Z,98177.81
2023-03-26T18:46:14.213Z,98191.22
2023-03-26T18:48:42.616Z,98197.94
2023-03-26T18:51:11.077Z,98196.28
2023-03-26T18:53:41.635Z,98203.84
2023-03-26T18:56:27.690Z,98228.25
2023-03-26T18:58:59.551Z,98264.34
2023-03-26T19:01:31.586Z,98282.09
2023-03-26T19:04:03.679Z,98307.22
2023-03-26T19:06:35.936Z,98314.88
2023-03-26T19:09:16.396Z,98301.56
2023-03-26T19:11:57.165Z,98303.25
2023-03-26T19:14:27.073Z,98291.59
2023-03-26T19:16:59.107Z,98285.75
2023-03-26T19:19:32.500Z,98274.00
2023-03-26T19:22:01.147Z,98269.84
2023-03-26T19:24:29.179Z,98241.47
2023-03-26T19:26:59.046Z,98242.31
2023-03-26T19:29:31.028Z,98240.63
2023-03-26T19:32:03.886Z,98233.94
2023-03-26T19:34:34.923Z,98225.59
2023-03-26T19:37:04.916Z,98208.91
2023-03-26T19:39:40.270Z,98213.94
2023-03-26T19:42:15.995Z,98214.75
2023-03-26T19:44:45.081Z,98205.53
2023-03-26T19:47:20.059Z,98193.84
2023-03-26T19:49:54.348Z,98192.13
2023-03-26T19:52:24.854Z,98187.13
2023-03-26T19:55:01.696Z,98183.78
2023-03-26T19:57:32.856Z,98163.72
2023-03-26T20:00:01.230Z,98153.72
2023-03-26T20:02:29.301Z,98147.88
2023-03-26T20:04:57.309Z,98143.69
2023-03-26T20:10:15.766Z,98125.34
2023-03-26T20:12:45.510Z,98126.19
2023-03-26T20:15:19.845Z,98128.72
2023-03-26T20:17:50.070Z,98125.38
2023-03-26T20:20:18.349Z,98130.44
2023-03-26T20:22:46.907Z,98124.59
2023-03-26T20:27:55.426Z,98143.78
2023-03-26T20:30:36.849Z,98143.78
2023-03-26T20:33:12.128Z,98146.31
2023-03-26T20:35:42.728Z,98148.78
2023-03-26T20:38:10.657Z,98147.97
2023-03-26T20:40:39.153Z,98139.63
2023-03-26T20:43:12.369Z,98145.47
2023-03-26T20:45:40.553Z,98139.63
2023-03-26T20:48:10.213Z,98140.44
2023-03-26T20:50:49.985Z,98141.31
2023-03-26T20:53:20.371Z,98135.47
2023-03-26T20:55:49.729Z,98135.47
2023-03-26T20:58:31.356Z,98132.13
2023-03-26T21:01:02.217Z,98123.78
2023-03-26T21:03:30.503Z,98135.47
2023-03-26T21:06:01.024Z,98135.47
2023-03-26T21:08:35.067Z,98134.63
2023-03-26T21:11:04.763Z,98138.84
2023-03-26T21:13:40.100Z,98126.31
2023-03-26T21:16:09.097Z,98118.81
2023-03-26T21:18:37.822Z,98114.63
2023-03-26T21:21:21.572Z,98118.78
2023-03-26T21:24:00.205Z,98115.44
2023-03-26T21:26:33.610Z,98105.44
2023-03-26T21:29:11.750Z,98105.44
2023-03-26T21:31:40.285Z,98099.63
2023-03-26T21:34:09.623Z,98098.78
2023-03-26T21:36:38.110Z,98090.44
2023-03-26T21:39:06.558Z,98101.28
2023-03-26T21:41:43.631Z,98095.47
2023-03-26T21:44:14.254Z,98078.81
2023-03-26T21:46:43.791Z,98080.47
2023-03-26T21:49:13.477Z,98080.47
2023-03-26T21:51:42.706Z,98070.47
2023-03-26T21:54:22.668Z,98083.81
2023-03-26T21:57:01.942Z,98075.47
2023-03-26T21:59:39.366Z,98067.16
2023-03-26T22:02:16.319Z,98059.63
2023-03-26T22:04:49.809Z,98048.81
2023-03-26T22:07:21.462Z,98049.63
2023-03-26T22:09:50.173Z,98037.97
2023-03-26T22:12:18.028Z,98047.94
2023-03-26T22:14:48.385Z,98049.59
2023-03-26T22:17:16.296Z,98044.59
2023-03-26T22:19:44.135Z,98045.44
2023-03-26T22:22:12.479Z,98044.59
2023-03-26T22:24:40.394Z,98043.72
2023-03-26T22:27:08.334Z,98034.53
2023-03-26T22:29:36.463Z,98031.19
2023-03-26T22:32:06.352Z,98036.22
2023-03-26T22:34:35.128Z,98030.38
2023-03-26T22:37:03.037Z,98022.91
2023-03-26T22:39:31.331Z,98017.13
2023-03-26T22:42:01.421Z,98022.09
2023-03-26T22:44:29.322Z,98022.94
2023-03-26T22:46:57.147Z,98020.41
2023-03-26T22:49:27.416Z,98023.72
2023-03-26T22:51:55.317Z,98025.38
2023-03-26T22:54:23.163Z,98019.56
2023-03-26T22:56:52.159Z,98032.91
2023-03-26T22:59:20.125Z,98035.41
2023-03-26T23:01:48.151Z,98037.06
2023-03-26T23:04:16.161Z,98038.72
2023-03-26T23:07:01.145Z,98046.19
2023-03-26T23:09:29.418Z,98038.72
2023-03-26T23:11:57.734Z,98046.25
2023-03-26T23:14:25.820Z,98046.25
2023-03-26T23:16:53.699Z,98054.63
2023-03-26T23:19:21.637Z,98049.63
2023-03-26T23:21:49.561Z,98050.44
2023-03-26T23:24:18.990Z,98050.47
2023-03-26T23:26:51.011Z,98047.13
2023-03-26T23:29:19.404Z,98047.16
2023-03-26T23:31:47.447Z,98046.28
2023-03-26T23:34:16.816Z,98042.97
2023-03-26T23:36:45.571Z,98037.13
2023-03-26T23:39:13.788Z,98036.28
2023-03-26T23:41:43.756Z,98037.13
2023-03-26T23:44:13.682Z,98033.78
2023-03-26T23:46:42.635Z,98034.63
2023-03-26T23:49:10.664Z,98028.81
2023-03-26T23:51:38.928Z,98018.81
2023-03-26T23:54:08.598Z,98017.97
2023-03-26T23:56:36.665Z,98010.47
2023-03-26T23:59:06.136Z,97999.66
